• Join FlightAware (Why Join?)
  • Login
  • US Flag 
12:03PM EDT


 

Airport Tracker/Info


-or-


 

Live Flight TrackerFlight Track Log ✈ SKW4472 ✈ 21-Apr-2013 ✈ KMEM - KMSP

Flight Track Log - Related Links

Times and Time Zones

All times are in EDT time to prevent confusion due to time zone crossing. See the SKW4472 flight status page for this flight to view local times or setup timezone preferences in your user account.

Time Position Orientation Groundspeed Altitude Reporting Facility
EDT Latitude Longitude Course Direction KTS MPH feet Rate Location/Type
07:52PM 35.0667 -89.9667 North 171 197 1,200  Level KMEM
07:54PM 35.1667 -90.0000 345° North 268 308 4,600 2,340 Climbing KMEM
07:54PM 35.2167 -90.0167 345° North 276 318 6,600 2,520 Climbing KMEM
07:55PM 35.3830 -90.0026 356° North  Level FlightAware Approximate
07:56PM 35.4966 -90.0113 356° North  Level FlightAware Approximate
07:56PM 35.3697 -90.0208 359° North 332 382 11,300  Level Memphis Center
07:57PM 35.6006 -90.0167 North  Level FlightAware Approximate
07:57PM 35.4617 -90.0256 358° North 332 382 13,300  Level Memphis Center
07:58PM 35.5639 -90.0356 355° North 348 400 15,400 2,400 Climbing Memphis Center
07:59PM 35.6661 -90.0403 358° North 358 412 18,100 2,460 Climbing Memphis Center
08:00PM 35.7683 -90.0500 356° North 351 404 20,400 1,980 Climbing Memphis Center
08:01PM 35.8725 -90.0600 356° North 351 404 22,100 1,680 Climbing Memphis Center
08:02PM 35.9811 -90.0697 356° North 364 419 23,800 1,680 Climbing Memphis Center
08:03PM 36.0917 -90.0797 356° North 385 443 25,500 1,680 Climbing Memphis Center
08:04PM 36.2022 -90.0894 356° North 390 449 27,200 1,680 Climbing Memphis Center
08:05PM 36.3147 -90.0994 356° North 390 449 28,900 1,440 Climbing Memphis Center
08:06PM 36.4128 -90.1069 356° North 395 455 30,100 1,140 Climbing Memphis Center
08:07PM 36.5272 -90.1194 355° North 400 460 31,200 900 Climbing Memphis Center
08:08PM 36.6419 -90.1294 356° North 411 473 32,000 360 Climbing Memphis Center
08:09PM 36.7650 -90.1444 354° North 418 481 32,000  Level Memphis Center
08:11PM 36.9603 -90.1592 357° North 445 512 32,000  Level Kansas City Center
08:12PM 37.0839 -90.1700 356° North 444 511 32,000  Level Kansas City Center
08:13PM 37.2050 -90.1833 355° North 437 503 32,000  Level Kansas City Center
08:14PM 37.3239 -90.1958 355° North 430 495 32,000  Level Kansas City Center
08:15PM 37.4347 -90.2064 356° North 426 490 32,000  Level Kansas City Center
08:16PM 37.5739 -90.2208 355° North 420 483 32,000  Level Kansas City Center
08:17PM 37.6883 -90.2367 354° North 416 479 32,000  Level Kansas City Center
08:18PM 37.7947 -90.2950 337° Northwest 416 479 32,000  Level Kansas City Center
08:19PM 37.9131 -90.3528 339° North 429 494 32,000  Level Kansas City Center
08:20PM 38.0183 -90.4075 338° Northwest 434 499 32,000  Level Kansas City Center
08:21PM 38.1308 -90.4653 338° Northwest 435 501 32,000  Level Kansas City Center
08:22PM 38.2425 -90.5228 338° Northwest 433 498 32,000  Level Kansas City Center
08:23PM 38.3769 -90.5922 338° Northwest 432 497 32,000  Level Kansas City Center
08:24PM 38.4883 -90.6492 338° Northwest 434 499 32,000  Level Kansas City Center
08:25PM 38.6042 -90.7092 338° Northwest 436 502 32,000  Level Kansas City Center
08:26PM 38.7181 -90.7697 337° Northwest 437 503 32,000  Level Kansas City Center
08:27PM 38.8319 -90.8289 338° Northwest 438 504 32,000  Level Kansas City Center
08:28PM 38.9458 -90.8881 338° Northwest 438 504 32,000  Level Kansas City Center
08:29PM 39.0594 -90.9481 338° Northwest 439 505 32,000  Level Kansas City Center
08:30PM 39.1711 -91.0078 337° Northwest 436 502 32,000  Level Kansas City Center
08:31PM 39.2847 -91.0667 338° Northwest 438 504 32,000  Level Kansas City Center
08:32PM 39.4192 -91.1381 338° Northwest 435 501 32,000  Level Kansas City Center
08:33PM 39.5275 -91.1969 337° Northwest 427 491 32,000  Level Kansas City Center
08:34PM 39.6378 -91.2533 339° North 426 490 32,000  Level Kansas City Center
08:36PM 39.7442 -91.3131 337° Northwest 420 483 32,000  Level Kansas City Center
08:37PM 39.8642 -91.3753 338° Northwest 416 479 32,000  Level Kansas City Center
08:38PM 39.9700 -91.4339 337° Northwest 416 479 32,000  Level Kansas City Center
08:39PM 40.0739 -91.4903 337° Northwest 412 474 32,000  Level Kansas City Center
08:40PM 40.1786 -91.5481 337° Northwest 412 474 32,000  Level Kansas City Center
08:41PM 40.2856 -91.6067 337° Northwest 416 479 32,000  Level Kansas City Center
08:42PM 40.4169 -91.6786 337° Northwest 426 490 32,000  Level Kansas City Center
08:43PM 40.5267 -91.7381 338° Northwest 430 495 32,000  Level Kansas City Center
08:44PM 40.6375 -91.7986 337° Northwest 433 498 32,000  Level Kansas City Center
08:45PM 40.7475 -91.8606 337° Northwest 435 501 32,000  Level Kansas City Center
08:46PM 40.8594 -91.9219 337° Northwest 439 505 32,000  Level Kansas City Center
08:47PM 40.9486 -91.9706 338° Northwest 439 505 32,000  Level Minneapolis Center
08:47PM 40.9928 -91.9953 337° Northwest 437 503 32,000  Level Chicago Center
08:48PM 41.1117 -92.0275 348° North 440 506 32,000  Level Chicago Center
08:49PM 41.2308 -92.0583 349° North 440 506 32,000  Level Chicago Center
08:50PM 41.3522 -92.1033 344° North 437 503 32,000  Level Chicago Center
08:51PM 41.4644 -92.1636 338° Northwest 437 503 32,000  Level Chicago Center
08:52PM 41.5764 -92.2225 339° North 434 499 32,000  Level Chicago Center
08:53PM 41.7122 -92.2878 340° North 434 499 32,000  Level Chicago Center
08:54PM 41.8247 -92.3444 339° North 434 499 32,000  Level Chicago Center
08:55PM 41.9350 -92.4022 339° North 428 493 32,000  Level Chicago Center
08:56PM 42.0469 -92.4514 342° North 429 494 32,000  Level Chicago Center
08:57PM 42.1669 -92.4475 North 433 498 32,000  Level Chicago Center
08:58PM 42.2392 -92.4394 North 435 501 32,000  Level Minneapolis Center
08:59PM 42.3836 -92.4214 North 436 502 32,000  Level Minneapolis Center
09:00PM 42.5039 -92.4103 North 434 499 32,000  Level Minneapolis Center
09:01PM 42.6142 -92.4556 343° North 413 475 32,000  Level Minneapolis Center
09:02PM 42.7100 -92.5414 327° Northwest 413 475 32,000  Level Minneapolis Center
09:03PM 42.8042 -92.6272 326° Northwest 410 472 32,000 -240 Level Minneapolis Center
09:04PM 42.8986 -92.7147 326° Northwest 411 473 31,600 -1,260 Descending Minneapolis Center
09:05PM 43.0106 -92.8175 326° Northwest 406 467 29,500 -1,800 Descending Minneapolis Center
09:06PM 43.1006 -92.9031 325° Northwest 398 458 27,900 -1,620 Descending Minneapolis Center
09:07PM 43.1900 -92.9853 326° Northwest 392 451 26,200 -1,680 Descending Minneapolis Center
09:08PM 43.2775 -93.0694 325° Northwest 385 443 24,500 -1,080 Descending Minneapolis Center
09:09PM 43.3631 -93.1497 326° Northwest 378 435 24,000 -300 Descending Minneapolis Center
09:10PM 43.4542 -93.2278 328° Northwest 385 443 24,000 -60 Level Minneapolis Center
09:11PM 43.5908 -93.2272 360° North 416 479 23,900 -540 Descending Minneapolis Center
09:12PM 43.7000 -93.2269 360° North 398 458 23,000 -1,500 Descending Minneapolis Center
09:13PM 43.8008 -93.2011 10° North 382 440 20,800 -2,460 Descending Minneapolis Center
09:14PM 43.9033 -93.1869 North 376 433 18,000 -2,940 Descending Minneapolis Center
09:15PM 43.9503 -93.1908 357° North 374 430 16,900 -3,000 Descending FAA TRACON SMA TRACON (SMA)
09:15PM 43.9819 -93.1939 356° North 370 426 16,000 -2,520 Descending FAA TRACON SMA TRACON (SMA)
09:15PM 44.0133 -93.1969 356° North 368 423 15,200 -2,700 Descending FAA TRACON SMA TRACON (SMA)
09:16PM 44.0528 -93.2003 357° North 367 422 14,200 -2,940 Descending FAA TRACON SMA TRACON (SMA)
09:16PM 44.0839 -93.2050 354° North 366 421 13,300 -2,400 Descending FAA TRACON SMA TRACON (SMA)
09:16PM 44.1150 -93.2075 357° North 365 420 12,600 -2,400 Descending FAA TRACON SMA TRACON (SMA)
09:17PM 44.1536 -93.2117 356° North 361 415 11,700 -2,400 Descending FAA TRACON SMA TRACON (SMA)
09:17PM 44.1839 -93.2142 357° North 355 409 11,000 -2,100 Descending FAA TRACON SMA TRACON (SMA)
09:17PM 44.2139 -93.2178 355° North 351 404 10,300 -1,560 Descending FAA TRACON SMA TRACON (SMA)
09:18PM 44.2431 -93.2183 359° North 344 396 10,000 -480 Descending FAA TRACON SMA TRACON (SMA)
09:18PM 44.2769 -93.2150 North 322 371 10,000  Level FAA TRACON SMA TRACON (SMA)
09:18PM 44.3019 -93.2119 North 301 346 10,000 -300 Level FAA TRACON SMA TRACON (SMA)
09:19PM 44.3253 -93.2117 360° North 281 323 9,800 -600 Descending FAA TRACON SMA TRACON (SMA)
09:19PM 44.3536 -93.2078 North 265 305 9,600 -780 Descending FAA TRACON SMA TRACON (SMA)
09:19PM 44.3753 -93.2053 North 256 295 9,300 -1,080 Descending FAA TRACON SMA TRACON (SMA)
09:20PM 44.3967 -93.2031 North 252 290 8,900 -1,380 Descending FAA TRACON SMA TRACON (SMA)
09:20PM 44.4239 -93.2008 North 254 292 8,400 -1,200 Descending FAA TRACON SMA TRACON (SMA)
09:20PM 44.4458 -93.2000 North 255 293 8,100 -600 Descending FAA TRACON SMA TRACON (SMA)
09:21PM 44.4714 -93.2044 353° North 248 285 8,000 -180 Descending FAA TRACON SMA TRACON (SMA)
09:21PM 44.4900 -93.2144 339° North 238 274 8,000  Level FAA TRACON SMA TRACON (SMA)
09:21PM 44.5083 -93.2250 338° Northwest 234 269 8,000  Level FAA TRACON SMA TRACON (SMA)
09:22PM 44.5333 -93.2322 348° North 241 277 8,000  Level FAA TRACON SMA TRACON (SMA)
09:22PM 44.5519 -93.2161 32° Northeast 259 298 8,000  Level FAA TRACON SMA TRACON (SMA)
09:22PM 44.5628 -93.1875 62° Northeast 272 313 8,000  Level FAA TRACON SMA TRACON (SMA)
09:23PM 44.5731 -93.1500 69° East 270 311 8,000  Level FAA TRACON SMA TRACON (SMA)
09:23PM 44.5808 -93.1211 69° East 261 300 8,000  Level FAA TRACON SMA TRACON (SMA)
09:23PM 44.5892 -93.0908 69° East 262 302 8,000  Level FAA TRACON SMA TRACON (SMA)
09:24PM 44.5972 -93.0611 69° East 265 305 8,000  Level FAA TRACON SMA TRACON (SMA)
09:24PM 44.6072 -93.0239 69° East 267 307 8,000  Level FAA TRACON SMA TRACON (SMA)
09:24PM 44.6153 -92.9956 68° East 260 299 8,000  Level FAA TRACON SMA TRACON (SMA)
09:25PM 44.6206 -92.9614 78° East 243 280 8,000  Level FAA TRACON SMA TRACON (SMA)
09:25PM 44.6217 -92.9411 86° East 230 265 8,000  Level FAA TRACON SMA TRACON (SMA)
09:25PM 44.6231 -92.9064 87° East 228 262 8,000  Level FAA TRACON SMA TRACON (SMA)
09:26PM 44.6331 -92.8761 65° Northeast 231 266 8,000 -180 Level FAA TRACON SMA TRACON (SMA)
09:26PM 44.6453 -92.8536 53° Northeast 231 266 7,900 -600 Descending FAA TRACON SMA TRACON (SMA)
09:26PM 44.6575 -92.8311 53° Northeast 234 269 7,600 -1,200 Descending FAA TRACON SMA TRACON (SMA)
09:27PM 44.6761 -92.8103 39° Northeast 237 273 7,100 -900 Descending FAA TRACON SMA TRACON (SMA)
09:27PM 44.6914 -92.8153 347° North 223 257 7,000 -360 Descending FAA TRACON SMA TRACON (SMA)
09:27PM 44.7036 -92.8278 324° Northwest 186 214 6,900 -600 Descending FAA TRACON SMA TRACON (SMA)
09:28PM 44.7186 -92.8442 322° Northwest 174 200 6,600 -1,080 Descending FAA TRACON SMA TRACON (SMA)
09:28PM 44.7283 -92.8606 310° West 178 205 6,200 -900 Descending FAA TRACON SMA TRACON (SMA)
09:28PM 44.7364 -92.8778 303° West 173 199 6,000 -300 Descending FAA TRACON SMA TRACON (SMA)
09:29PM 44.7442 -92.8994 297° West 166 191 6,000 -300 Level FAA TRACON SMA TRACON (SMA)
09:29PM 44.7508 -92.9169 298° West 163 188 5,800 -780 Descending FAA TRACON SMA TRACON (SMA)
09:29PM 44.7572 -92.9350 296° West 166 191 5,500 -1,260 Descending FAA TRACON SMA TRACON (SMA)
09:30PM 44.7667 -92.9564 302° West 169 194 5,000 -1,380 Descending FAA TRACON SMA TRACON (SMA)
09:30PM 44.7744 -92.9736 302° West 169 194 4,600 -900 Descending FAA TRACON SMA TRACON (SMA)
09:30PM 44.7819 -92.9900 303° West 164 189 4,400 -900 Descending FAA TRACON SMA TRACON (SMA)
09:31PM 44.7917 -93.0117 302° West 168 193 4,000 -1,080 Descending FAA TRACON SMA TRACON (SMA)
09:31PM 44.7989 -93.0283 301° West 165 190 3,700 -720 Descending FAA TRACON SMA TRACON (SMA)
09:31PM 44.8056 -93.0447 300° West 159 183 3,500 -780 Descending FAA TRACON SMA TRACON (SMA)
09:32PM 44.8128 -93.0608 302° West 159 183 3,200 -960 Descending FAA TRACON SMA TRACON (SMA)